Time;durP1;ratioP1;P1;durP2;ratioP2;P2;SDS_P1;SDS_P2;PMS_P1;PMS_P2;Temp;Humidity;BMP_temperature;BMP_pressure;BME280_temperature;BME280_humidity;BME280_pressure;Samples;Min_cycle;Max_cycle;Signal;HPM_P1;HPM_P2
2021/04/12 00:02:05;;;;;;;3.00;2.70;;;6.20;99.90;;;;;;4900857;29;20458;-67
2021/04/12 00:04:36;;;;;;;2.70;2.50;;;6.10;99.90;;;;;;4912716;29;20484;-67
2021/04/12 00:07:13;;;;;;;2.90;2.60;;;5.90;99.90;;;;;;4912929;29;20531;-67
2021/04/12 00:09:45;;;;;;;2.67;2.43;;;6.00;99.90;;;;;;4913041;29;20917;-68
2021/04/12 00:12:16;;;;;;;2.90;2.20;;;6.00;99.90;;;;;;4912573;29;20542;-67
2021/04/12 00:14:47;;;;;;;3.13;2.83;;;6.10;99.90;;;;;;4913348;29;20535;-67
2021/04/12 00:17:18;;;;;;;3.47;2.63;;;6.20;99.90;;;;;;4912015;29;20494;-67
2021/04/12 00:19:50;;;;;;;2.30;2.10;;;5.80;99.90;;;;;;4912899;29;20511;-67
2021/04/12 00:22:21;;;;;;;2.90;2.57;;;5.50;99.90;;;;;;4912159;29;21267;-67
2021/04/12 00:24:55;;;;;;;2.70;2.50;;;5.60;99.90;;;;;;4913577;29;20536;-67
2021/04/12 00:27:24;;;;;;;2.90;2.57;;;5.50;99.90;;;;;;4911813;29;21315;-67
2021/04/12 00:29:54;;;;;;;3.13;2.83;;;5.60;99.90;;;;;;4912967;29;20518;-67
2021/04/12 00:32:28;;;;;;;3.33;3.03;;;5.60;99.90;;;;;;4911946;29;21384;-67
2021/04/12 00:34:59;;;;;;;3.57;3.07;;;5.50;99.90;;;;;;4916525;29;21034;-67
2021/04/12 00:37:31;;;;;;;4.27;3.03;;;5.90;99.90;;;;;;4914789;29;20532;-67
2021/04/12 00:40:05;;;;;;;3.30;3.00;;;5.60;99.90;;;;;;4916646;29;20535;-67
2021/04/12 00:43:09;;;;;;;3.07;2.77;;;5.50;99.90;;;;;;4915827;29;21004;-67
2021/04/12 00:45:43;;;;;;;2.77;2.57;;;5.80;99.90;;;;;;4916496;29;20444;-67
2021/04/12 00:48:38;;;;;;;4.03;3.57;;;5.60;99.90;;;;;;4915106;29;20532;-67
2021/04/12 00:51:19;;;;;;;3.40;3.10;;;5.60;99.90;;;;;;4907127;29;20485;-67
2021/04/12 00:53:57;;;;;;;3.23;3.03;;;5.50;99.90;;;;;;4916519;29;20598;-68
2021/04/12 00:56:30;;;;;;;4.00;3.57;;;5.40;99.90;;;;;;4915941;29;20916;-67
2021/04/12 00:59:03;;;;;;;3.33;3.03;;;5.30;99.90;;;;;;4916045;29;20534;-67
2021/04/12 01:01:44;;;;;;;3.67;3.37;;;5.40;99.90;;;;;;4914919;29;20535;-67
2021/04/12 01:04:32;;;;;;;3.30;3.00;;;5.50;99.90;;;;;;4916205;29;20452;-67
2021/04/12 01:07:21;;;;;;;3.47;3.17;;;5.10;99.90;;;;;;4916279;29;20452;-67
2021/04/12 01:10:22;;;;;;;4.03;3.17;;;5.20;99.90;;;;;;4914270;29;20571;-67
2021/04/12 01:13:16;;;;;;;3.13;2.83;;;5.20;99.90;;;;;;4892672;29;20984;-67
2021/04/12 01:16:22;;;;;;;3.70;3.40;;;5.10;99.90;;;;;;4900391;29;20548;-67
2021/04/12 01:19:11;;;;;;;3.30;2.80;;;5.10;99.90;;;;;;4913184;29;20491;-67
2021/04/12 01:22:21;;;;;;;5.00;3.43;;;5.20;99.90;;;;;;4914394;29;20488;-67
2021/04/12 01:25:17;;;;;;;4.00;3.57;;;5.40;99.90;;;;;;4901176;29;20475;-67
2021/04/12 01:28:29;;;;;;;4.20;3.80;;;5.50;99.90;;;;;;4914990;29;20517;-67
2021/04/12 01:31:31;;;;;;;3.70;3.40;;;5.40;99.90;;;;;;4914139;29;20527;-67
2021/04/12 01:34:35;;;;;;;3.30;3.07;;;5.00;99.90;;;;;;4915645;29;20924;-67
2021/04/12 01:37:43;;;;;;;5.20;4.20;;;5.00;99.90;;;;;;4914988;29;20506;-66
2021/04/12 01:40:19;;;;;;;4.40;4.00;;;5.40;99.90;;;;;;4914043;29;20537;-66
2021/04/12 01:42:54;;;;;;;3.80;3.50;;;5.60;99.90;;;;;;4913797;29;20966;-67
2021/04/12 01:45:31;;;;;;;3.83;3.47;;;5.80;99.90;;;;;;4913456;29;20536;-67
2021/04/12 01:48:21;;;;;;;5.00;4.37;;;5.50;99.90;;;;;;4906178;29;20527;-67
2021/04/12 01:51:14;;;;;;;4.70;3.87;;;5.40;99.90;;;;;;4914258;29;21016;-67
2021/04/12 01:54:14;;;;;;;4.70;4.27;;;5.20;99.90;;;;;;4914090;29;21018;-67
2021/04/12 01:57:17;;;;;;;3.97;3.40;;;5.40;99.90;;;;;;4913999;29;20488;-68
2021/04/12 01:59:56;;;;;;;4.47;4.00;;;5.40;99.90;;;;;;4908008;29;20446;-67
2021/04/12 02:02:40;;;;;;;5.23;3.93;;;5.50;99.90;;;;;;4912648;29;20492;-67
2021/04/12 02:05:24;;;;;;;4.00;3.57;;;5.20;99.90;;;;;;4913717;29;20473;-67
2021/04/12 02:08:09;;;;;;;5.17;3.90;;;5.10;99.90;;;;;;4913172;29;21047;-69
2021/04/12 02:10:59;;;;;;;3.73;3.33;;;5.00;99.90;;;;;;4913413;29;20555;-67
2021/04/12 02:13:53;;;;;;;4.23;3.80;;;4.70;99.90;;;;;;4899280;29;20485;-67
2021/04/12 02:16:32;;;;;;;4.67;3.53;;;5.10;99.90;;;;;;4912769;29;20520;-67
2021/04/12 02:19:23;;;;;;;4.20;3.80;;;5.00;99.90;;;;;;4912978;29;20554;-67
2021/04/12 02:22:10;;;;;;;4.00;3.50;;;5.10;99.90;;;;;;4900465;29;20961;-69
2021/04/12 02:24:44;;;;;;;5.70;4.77;;;5.00;99.90;;;;;;4913219;29;20495;-67
2021/04/12 02:27:18;;;;;;;4.60;4.20;;;5.20;99.90;;;;;;4912291;29;20462;-67
2021/04/12 02:29:56;;;;;;;4.63;4.10;;;5.30;99.90;;;;;;4913287;29;21013;-69
2021/04/12 02:32:51;;;;;;;4.87;4.37;;;5.30;99.90;;;;;;4913154;29;20535;-67
2021/04/12 02:35:27;;;;;;;3.70;3.40;;;5.10;99.90;;;;;;4913261;29;20473;-68
2021/04/12 02:38:18;;;;;;;4.70;4.17;;;4.90;99.90;;;;;;4888633;29;616608;-67
2021/04/12 02:41:08;;;;;;;5.53;4.50;;;5.00;99.90;;;;;;4913564;29;20540;-68
2021/04/12 02:43:58;;;;;;;5.37;4.20;;;4.80;99.90;;;;;;4909462;29;20482;-67
2021/04/12 02:47:07;;;;;;;6.60;5.00;;;4.70;99.90;;;;;;4913654;29;20455;-68
2021/04/12 02:49:38;;;;;;;5.27;4.70;;;4.90;99.90;;;;;;4912022;29;20528;-68
2021/04/12 02:52:25;;;;;;;5.30;4.70;;;5.00;99.90;;;;;;4916093;29;20580;-67
2021/04/12 02:55:20;;;;;;;5.60;5.00;;;5.20;99.90;;;;;;4912836;29;20467;-68
2021/04/12 02:58:07;;;;;;;6.13;5.10;;;5.00;99.90;;;;;;4913255;29;20596;-67
2021/04/12 03:00:49;;;;;;;6.70;4.80;;;5.10;99.90;;;;;;4911448;29;20452;-67
2021/04/12 03:03:41;;;;;;;5.10;4.53;;;5.00;99.90;;;;;;4912709;29;20453;-67
2021/04/12 03:06:44;;;;;;;5.50;4.60;;;5.00;99.90;;;;;;4913289;29;20484;-67
2021/04/12 03:09:45;;;;;;;4.53;3.80;;;5.20;99.90;;;;;;4912486;29;20527;-67
2021/04/12 03:12:44;;;;;;;6.43;4.80;;;5.20;99.90;;;;;;4906491;29;20991;-67
2021/04/12 03:15:43;;;;;;;4.73;3.77;;;5.20;99.90;;;;;;4906120;29;20459;-68
2021/04/12 03:18:44;;;;;;;4.53;4.03;;;4.90;99.90;;;;;;4862126;29;21039;-67
2021/04/12 03:21:37;;;;;;;5.40;4.50;;;4.60;99.90;;;;;;4912254;29;20626;-67
2021/04/12 03:24:14;;;;;;;4.70;4.10;;;4.70;99.90;;;;;;4912808;29;20535;-67
2021/04/12 03:27:07;;;;;;;4.27;3.90;;;4.90;99.90;;;;;;4913687;29;20814;-68
2021/04/12 03:29:42;;;;;;;6.80;4.07;;;4.80;99.90;;;;;;4910567;29;20479;-68
2021/04/12 03:32:28;;;;;;;4.53;4.07;;;5.10;99.90;;;;;;4911895;29;20822;-67
2021/04/12 03:35:05;;;;;;;4.03;3.60;;;5.10;99.90;;;;;;4913356;29;20549;-68
2021/04/12 03:37:45;;;;;;;5.10;4.27;;;5.00;99.90;;;;;;4912032;29;20585;-68
2021/04/12 03:40:26;;;;;;;4.70;4.30;;;5.20;99.90;;;;;;4912778;29;20448;-67
2021/04/12 03:43:18;;;;;;;9.90;4.37;;;5.20;99.90;;;;;;4914020;29;20528;-67
2021/04/12 03:46:05;;;;;;;4.50;4.10;;;5.30;99.90;;;;;;4912965;29;20540;-67
2021/04/12 03:48:45;;;;;;;9.43;4.30;;;5.30;99.90;;;;;;4912157;29;20877;-68
2021/04/12 03:51:56;;;;;;;4.27;3.87;;;5.20;99.90;;;;;;4912002;29;20463;-67
2021/04/12 03:54:35;;;;;;;4.10;3.70;;;5.10;99.90;;;;;;4904091;29;20551;-67
2021/04/12 03:57:27;;;;;;;5.97;4.10;;;5.00;99.90;;;;;;4912130;29;21151;-67
2021/04/12 04:00:14;;;;;;;4.50;3.93;;;5.10;99.90;;;;;;4895774;29;20540;-68
2021/04/12 04:02:51;;;;;;;8.43;4.43;;;5.10;99.90;;;;;;4906846;29;20533;-68
2021/04/12 04:05:29;;;;;;;4.87;4.30;;;;;;;;;;4899554;29;20522;-67
2021/04/12 04:08:43;;;;;;;8.93;5.93;;;5.00;99.90;;;;;;4913407;29;20488;-68
2021/04/12 04:11:43;;;;;;;6.63;5.10;;;4.80;99.90;;;;;;4911230;29;20452;-67
2021/04/12 04:14:37;;;;;;;6.50;5.53;;;4.60;99.90;;;;;;4916451;29;20872;-67
2021/04/12 04:17:46;;;;;;;6.57;5.37;;;4.90;99.90;;;;;;4916026;29;20591;-67
2021/04/12 04:20:31;;;;;;;5.67;4.70;;;5.10;99.90;;;;;;4907811;29;20538;-67
2021/04/12 04:23:08;;;;;;;7.40;5.60;;;4.90;99.90;;;;;;4917056;29;20543;-69
2021/04/12 04:26:10;;;;;;;7.17;4.77;;;4.90;99.90;;;;;;4916979;29;20816;-70
2021/04/12 04:29:12;;;;;;;5.73;5.13;;;4.90;99.90;;;;;;4915443;29;20452;-70
2021/04/12 04:32:01;;;;;;;6.77;5.43;;;5.00;99.90;;;;;;4899802;29;20531;-69
2021/04/12 04:34:32;;;;;;;6.97;5.67;;;5.00;99.90;;;;;;4914245;29;20470;-69
2021/04/12 04:37:36;;;;;;;6.83;5.30;;;5.00;99.90;;;;;;4916039;29;21000;-69
2021/04/12 04:40:34;;;;;;;8.20;4.80;;;5.00;99.90;;;;;;4880120;29;21042;-69
2021/04/12 04:43:14;;;;;;;7.87;5.47;;;4.80;99.90;;;;;;4886339;29;20450;-70
2021/04/12 04:46:04;;;;;;;6.97;5.00;;;4.70;99.90;;;;;;4915587;29;20467;-68
2021/04/12 04:48:45;;;;;;;6.57;5.10;;;4.20;99.90;;;;;;4915734;29;20449;-70
2021/04/12 04:51:27;;;;;;;6.43;5.00;;;4.70;99.90;;;;;;4915879;29;20543;-69
2021/04/12 04:54:12;;;;;;;4.23;3.70;;;4.90;99.90;;;;;;4916310;29;20545;-67
2021/04/12 04:56:57;;;;;;;5.17;4.30;;;4.60;99.90;;;;;;4915805;29;20563;-67
2021/04/12 04:59:35;;;;;;;4.30;3.63;;;4.50;99.90;;;;;;4915803;29;20555;-67
2021/04/12 05:02:20;;;;;;;6.17;3.93;;;4.50;99.90;;;;;;4916310;29;20518;-67
2021/04/12 05:05:33;;;;;;;4.37;3.97;;;4.50;99.90;;;;;;4916262;29;20464;-70
2021/04/12 05:08:27;;;;;;;4.47;3.80;;;4.70;99.90;;;;;;4915640;29;20464;-69
2021/04/12 05:11:25;;;;;;;4.53;3.60;;;4.70;99.90;;;;;;4916877;29;20852;-70
2021/04/12 05:14:27;;;;;;;5.70;5.20;;;4.60;99.90;;;;;;4915242;29;21021;-68
2021/04/12 05:17:12;;;;;;;5.90;4.53;;;4.60;99.90;;;;;;4893604;29;20490;-69
2021/04/12 05:20:14;;;;;;;5.03;4.47;;;4.70;99.90;;;;;;4915500;29;20526;-69
2021/04/12 05:23:10;;;;;;;5.07;4.57;;;4.60;99.90;;;;;;4901301;29;20488;-69
2021/04/12 05:26:14;;;;;;;6.07;5.47;;;4.60;99.90;;;;;;4915843;29;20538;-69
2021/04/12 05:29:05;;;;;;;6.57;5.20;;;4.60;99.90;;;;;;4915896;29;20954;-69
2021/04/12 05:31:58;;;;;;;6.50;4.60;;;4.70;99.90;;;;;;4914627;29;20540;-69
2021/04/12 05:34:55;;;;;;;6.20;5.07;;;4.30;99.90;;;;;;4914921;29;20460;-70
2021/04/12 05:37:35;;;;;;;6.60;5.57;;;4.50;99.90;;;;;;4914156;29;20482;-68
2021/04/12 05:40:20;;;;;;;7.07;5.03;;;4.80;99.90;;;;;;4915510;29;20531;-68
2021/04/12 05:43:08;;;;;;;6.17;5.10;;;4.50;99.90;;;;;;4915149;29;20532;-69
2021/04/12 05:46:22;;;;;;;5.97;4.43;;;4.40;99.90;;;;;;4915133;29;20545;-69
2021/04/12 05:49:08;;;;;;;6.23;5.63;;;4.70;99.90;;;;;;4897899;29;20540;-68
2021/04/12 05:51:51;;;;;;;6.50;5.23;;;4.90;99.90;;;;;;4915162;29;20463;-69
2021/04/12 05:54:40;;;;;;;6.83;6.23;;;4.80;99.90;;;;;;4915165;29;20567;-69
2021/04/12 05:57:26;;;;;;;5.53;5.03;;;4.80;99.90;;;;;;4913825;29;21170;-68
2021/04/12 06:00:17;;;;;;;5.60;3.93;;;4.60;99.90;;;;;;4915395;29;21005;-69
2021/04/12 06:03:07;;;;;;;7.00;5.47;;;4.60;99.90;;;;;;4914622;29;20524;-68
2021/04/12 06:05:39;;;;;;;7.07;5.87;;;4.80;99.90;;;;;;4913306;29;20500;-69
2021/04/12 06:08:35;;;;;;;7.03;5.60;;;4.60;99.90;;;;;;4915088;29;20463;-69
2021/04/12 06:11:34;;;;;;;6.60;5.87;;;4.50;99.90;;;;;;4914898;29;20579;-68
2021/04/12 06:14:29;;;;;;;7.83;5.90;;;4.80;99.90;;;;;;4915279;29;20511;-69
2021/04/12 06:17:14;;;;;;;10.40;6.20;;;4.80;99.90;;;;;;4914908;29;21067;-69
2021/04/12 06:20:08;;;;;;;7.20;5.87;;;4.90;99.90;;;;;;4915038;29;20445;-69
2021/04/12 06:23:01;;;;;;;7.00;5.03;;;4.90;99.90;;;;;;4913935;29;20455;-69
2021/04/12 06:25:52;;;;;;;7.30;6.00;;;4.70;99.90;;;;;;4914145;29;21039;-69
2021/04/12 06:28:35;;;;;;;8.23;6.50;;;4.90;99.90;;;;;;4913857;29;20469;-69
2021/04/12 06:31:48;;;;;;;6.60;5.80;;;5.00;99.90;;;;;;4913594;29;20936;-69
2021/04/12 06:34:51;;;;;;;6.60;6.00;;;4.70;99.90;;;;;;4913711;29;20532;-69
2021/04/12 06:37:28;;;;;;;7.43;6.70;;;4.70;99.90;;;;;;4913779;29;20603;-69
2021/04/12 06:40:40;;;;;;;8.63;6.40;;;4.80;99.90;;;;;;4915057;29;20525;-69
2021/04/12 06:43:55;;;;;;;6.90;6.07;;;5.00;99.90;;;;;;4914102;29;20488;-69
2021/04/12 06:47:03;;;;;;;8.03;6.10;;;5.20;99.90;;;;;;4913499;29;20552;-69
2021/04/12 06:50:14;;;;;;;7.80;6.33;;;5.00;99.90;;;;;;4913761;29;20443;-69
2021/04/12 06:53:26;;;;;;;10.90;6.80;;;5.20;99.90;;;;;;4873952;29;20482;-69
2021/04/12 06:57:04;;;;;;;6.83;5.80;;;5.50;99.90;;;;;;4914211;29;20938;-69
2021/04/12 07:00:12;;;;;;;9.90;6.43;;;5.20;99.90;;;;;;4913410;29;21102;-69
2021/04/12 07:03:15;;;;;;;9.30;6.00;;;4.80;99.90;;;;;;4913628;29;20484;-69
2021/04/12 07:06:14;;;;;;;7.20;6.47;;;5.20;99.90;;;;;;4913879;29;20460;-69
2021/04/12 07:08:58;;;;;;;7.80;6.07;;;5.30;99.90;;;;;;4914182;29;20540;-70
2021/04/12 07:12:02;;;;;;;13.43;6.80;;;5.20;99.90;;;;;;4913011;29;20468;-70
2021/04/12 07:15:15;;;;;;;10.93;6.27;;;5.40;99.90;;;;;;4912864;29;20476;-68
2021/04/12 07:18:08;;;;;;;8.27;6.50;;;5.30;99.90;;;;;;4890568;29;20499;-70
2021/04/12 07:21:17;;;;;;;8.40;6.80;;;5.30;99.90;;;;;;4892466;29;20942;-68
2021/04/12 07:24:35;;;;;;;8.40;6.40;;;5.10;99.90;;;;;;4914121;29;20534;-68
2021/04/12 07:27:32;;;;;;;6.93;6.23;;;4.70;99.90;;;;;;4913246;29;20460;-67
2021/04/12 07:30:26;;;;;;;8.40;6.83;;;5.00;99.90;;;;;;4913852;29;20486;-68
2021/04/12 07:33:27;;;;;;;10.53;7.30;;;4.90;99.90;;;;;;4878353;29;20458;-68
2021/04/12 07:36:31;;;;;;;9.50;7.10;;;5.20;99.90;;;;;;4917179;29;21013;-68
2021/04/12 07:39:51;;;;;;;10.73;7.93;;;5.50;99.90;;;;;;4910654;29;21043;-68
2021/04/12 07:43:01;;;;;;;11.33;7.30;;;5.80;99.90;;;;;;4912390;29;20890;-70
2021/04/12 07:46:11;;;;;;;12.40;7.40;;;5.80;99.90;;;;;;4912394;29;20771;-70
2021/04/12 07:49:24;;;;;;;11.73;7.30;;;5.70;99.90;;;;;;4913205;29;20858;-70
2021/04/12 07:52:43;;;;;;;11.70;8.03;;;5.40;99.90;;;;;;4894717;29;20515;-68
2021/04/12 07:55:35;;;;;;;8.43;7.53;;;5.40;99.90;;;;;;4896899;29;20457;-69
2021/04/12 07:58:51;;;;;;;14.00;8.77;;;5.50;99.90;;;;;;4913301;29;20913;-70
2021/04/12 08:01:59;;;;;;;9.20;7.90;;;5.80;99.90;;;;;;4912174;29;20890;-70
2021/04/12 08:05:04;;;;;;;12.07;8.60;;;6.00;99.90;;;;;;4913055;29;20553;-70
2021/04/12 08:08:04;;;;;;;12.63;11.10;;;6.40;99.90;;;;;;4897722;29;20577;-70
2021/04/12 08:11:33;;;;;;;11.00;8.70;;;6.20;15.20;;;;;;4912659;29;21058;-70
2021/04/12 08:14:33;;;;;;;18.77;8.87;;;5.70;99.90;;;;;;4913094;29;20990;-70
2021/04/12 08:17:38;;;;;;;12.07;8.83;;;6.00;99.90;;;;;;4913266;29;20519;-68
2021/04/12 08:20:46;;;;;;;15.10;9.40;;;5.90;1.00;;;;;;4913055;29;20635;-68
2021/04/12 08:24:05;;;;;;;10.90;8.60;;;5.80;99.90;;;;;;4911984;29;20480;-70
2021/04/12 08:27:17;;;;;;;11.33;8.90;;;5.70;99.90;;;;;;4912227;29;20506;-70
2021/04/12 08:30:26;;;;;;;12.53;9.80;;;5.90;99.90;;;;;;4876270;29;20878;-68
2021/04/12 08:33:40;;;;;;;13.03;9.27;;;5.90;99.90;;;;;;4913085;29;20544;-70
2021/04/12 08:36:47;;;;;;;14.23;9.60;;;5.70;99.90;;;;;;4913147;29;20598;-68
2021/04/12 08:39:47;;;;;;;15.33;9.77;;;6.00;99.90;;;;;;4911475;29;20492;-69
2021/04/12 08:42:33;;;;;;;9.70;8.43;;;6.40;1.00;;;;;;4911743;29;20467;-68
2021/04/12 08:45:47;;;;;;;11.17;8.33;;;6.40;1.00;;;;;;4913055;29;20535;-69
2021/04/12 08:48:21;;;;;;;14.73;8.53;;;6.40;1.00;;;;;;4912869;29;20818;-69
2021/04/12 08:51:40;;;;;;;11.13;9.10;;;6.20;1.00;;;;;;4913090;29;20946;-68
2021/04/12 08:54:46;;;;;;;16.10;9.67;;;6.50;1.00;;;;;;4913945;29;20963;-68
2021/04/12 08:58:01;;;;;;;8.83;7.10;;;6.40;99.90;;;;;;4904072;29;20487;-68
2021/04/12 09:01:00;;;;;;;11.33;7.53;;;6.30;1.00;;;;;;4915798;29;20472;-69
2021/04/12 09:04:04;;;;;;;7.63;6.37;;;6.40;1.00;;;;;;4914004;29;20591;-69
2021/04/12 09:07:12;;;;;;;10.30;7.50;;;6.30;99.90;;;;;;4905331;29;20514;-69
2021/04/12 09:10:08;;;;;;;10.73;7.80;;;6.60;99.90;;;;;;4894423;29;20456;-69
2021/04/12 09:13:06;;;;;;;8.30;7.40;;;6.60;99.90;;;;;;4907312;29;20532;-68
2021/04/12 09:16:14;;;;;;;10.50;7.03;;;6.60;1.00;;;;;;4915593;29;20476;-69
2021/04/12 09:19:14;;;;;;;7.90;6.87;;;6.50;1.00;;;;;;4912802;29;20547;-70
2021/04/12 09:22:22;;;;;;;9.23;7.30;;;6.60;99.90;;;;;;4907224;29;20492;-70
2021/04/12 09:25:36;;;;;;;8.10;7.30;;;6.20;50.00;;;;;;4915756;29;20564;-70
2021/04/12 09:28:21;;;;;;;12.87;7.77;;;6.30;1.00;;;;;;4898155;29;20502;-69
2021/04/12 09:31:26;;;;;;;11.63;6.40;;;6.80;99.90;;;;;;4915870;29;21981;-70
2021/04/12 09:34:36;;;;;;;7.67;5.93;;;7.50;99.90;;;;;;4915749;29;20450;-69
2021/04/12 09:37:45;;;;;;;8.00;5.93;;;7.00;99.90;;;;;;4915348;29;21008;-68
2021/04/12 09:40:31;;;;;;;7.13;5.40;;;6.80;14.60;;;;;;4883270;29;20875;-70
2021/04/12 09:43:44;;;;;;;5.93;5.37;;;7.10;99.90;;;;;;4915720;29;20527;-70
2021/04/12 09:46:42;;;;;;;5.80;5.20;;;7.10;96.70;;;;;;4875329;29;20529;-68
2021/04/12 09:49:57;;;;;;;5.77;5.07;;;7.00;1.00;;;;;;4914866;29;21024;-68
2021/04/12 09:52:39;;;;;;;5.40;4.90;;;7.30;45.30;;;;;;4874095;29;20455;-68
2021/04/12 09:55:35;;;;;;;9.53;5.13;;;7.10;99.90;;;;;;4915026;29;20460;-70
2021/04/12 09:58:37;;;;;;;6.23;4.83;;;7.30;1.00;;;;;;4914866;29;20507;-68
2021/04/12 10:01:31;;;;;;;4.73;3.97;;;7.30;99.90;;;;;;4915091;29;20475;-68
2021/04/12 10:04:39;;;;;;;5.03;4.40;;;7.40;99.90;;;;;;4915325;29;20445;-68
2021/04/12 10:07:43;;;;;;;7.33;4.43;;;7.50;1.00;;;;;;4914009;29;20456;-69
2021/04/12 10:10:16;;;;;;;8.10;4.30;;;7.40;1.00;;;;;;4914775;29;20459;-68
2021/04/12 10:12:51;;;;;;;4.90;4.10;;;7.40;99.90;;;;;;4914544;29;20533;-69
2021/04/12 10:15:29;;;;;;;3.97;3.67;;;7.90;1.00;;;;;;4915087;29;20487;-69
2021/04/12 10:18:08;;;;;;;4.33;3.80;;;7.70;1.00;;;;;;4915097;29;20487;-69
2021/04/12 10:20:41;;;;;;;5.10;3.73;;;7.40;1.00;;;;;;4914937;29;20980;-69
2021/04/12 10:23:16;;;;;;;5.73;3.53;;;7.70;1.00;;;;;;4914034;29;20601;-68
2021/04/12 10:25:50;;;;;;;4.47;2.87;;;7.40;1.00;;;;;;4914944;29;20524;-69
2021/04/12 10:28:22;;;;;;;8.40;3.73;;;7.10;1.00;;;;;;4914363;29;20488;-69
2021/04/12 10:30:56;;;;;;;6.83;3.73;;;6.80;1.00;;;;;;4914741;29;20453;-69
2021/04/12 10:33:35;;;;;;;3.87;2.80;;;7.10;1.00;;;;;;4913610;29;20451;-68
2021/04/12 10:36:06;;;;;;;4.70;2.40;;;7.60;1.00;;;;;;4914032;29;20468;-68
2021/04/12 10:38:36;;;;;;;3.30;3.00;;;7.60;1.00;;;;;;4913693;29;20587;-69
2021/04/12 10:41:13;;;;;;;3.53;3.07;;;7.60;99.90;;;;;;4913892;29;20552;-68
2021/04/12 10:43:51;;;;;;;2.30;2.03;;;8.10;99.90;;;;;;4914484;29;20476;-69
2021/04/12 10:46:22;;;;;;;5.53;4.10;;;8.20;99.90;;;;;;4913451;29;20579;-68
2021/04/12 10:48:53;;;;;;;3.40;2.60;;;8.40;99.90;;;;;;4914182;29;20495;-69
2021/04/12 10:51:33;;;;;;;3.60;2.80;;;8.40;99.90;;;;;;4913186;29;20449;-69
2021/04/12 10:54:32;;;;;;;4.17;1.77;;;8.20;99.90;;;;;;4914155;29;20528;-69
2021/04/12 10:57:09;;;;;;;6.03;3.90;;;7.80;99.90;;;;;;4914313;29;20484;-69
2021/04/12 11:00:07;;;;;;;2.93;2.57;;;7.90;99.90;;;;;;4914500;29;20918;-69
2021/04/12 11:02:53;;;;;;;4.70;2.00;;;7.80;99.90;;;;;;4913995;29;20528;-70
2021/04/12 11:05:23;;;;;;;3.17;2.40;;;7.70;99.90;;;;;;4913201;29;20551;-68
2021/04/12 11:07:54;;;;;;;3.33;2.40;;;7.60;99.90;;;;;;4913713;29;20488;-69
2021/04/12 11:10:32;;;;;;;6.03;3.03;;;7.20;99.90;;;;;;4913324;29;20444;-69
2021/04/12 11:13:03;;;;;;;4.80;2.63;;;7.30;99.90;;;;;;4913867;29;20532;-69
2021/04/12 11:15:38;;;;;;;5.67;2.40;;;7.50;99.90;;;;;;4913531;29;20811;-69
2021/04/12 11:18:18;;;;;;;5.13;2.70;;;7.60;99.90;;;;;;4913312;29;20472;-70
2021/04/12 11:20:52;;;;;;;4.23;3.13;;;8.00;99.90;;;;;;4914038;29;20476;-69
2021/04/12 11:23:23;;;;;;;2.57;2.37;;;7.70;99.90;;;;;;4912606;29;20543;-68
2021/04/12 11:25:56;;;;;;;6.03;2.50;;;8.00;99.90;;;;;;4913612;29;20445;-70
2021/04/12 11:28:47;;;;;;;2.37;2.03;;;8.30;99.90;;;;;;4913033;29;20539;-69
2021/04/12 11:31:20;;;;;;;2.50;1.80;;;8.40;99.90;;;;;;4912437;29;20555;-68
2021/04/12 11:33:56;;;;;;;4.47;2.40;;;8.00;99.90;;;;;;4913488;29;20978;-68
2021/04/12 11:36:33;;;;;;;3.77;2.03;;;7.70;99.90;;;;;;4912581;29;20964;-68
2021/04/12 11:39:07;;;;;;;2.03;1.83;;;7.60;99.90;;;;;;4913656;29;20677;-68
2021/04/12 11:41:42;;;;;;;4.17;1.87;;;7.40;99.90;;;;;;4913730;29;20527;-68
2021/04/12 11:44:13;;;;;;;2.80;2.03;;;7.50;99.90;;;;;;4913494;29;20510;-68
2021/04/12 11:47:00;;;;;;;3.03;2.03;;;7.70;99.90;;;;;;4913236;29;20544;-69
2021/04/12 11:49:35;;;;;;;2.60;2.40;;;8.00;99.90;;;;;;4912625;29;20464;-69
2021/04/12 11:52:09;;;;;;;2.97;2.50;;;8.00;99.90;;;;;;4913018;29;20528;-68
2021/04/12 11:54:42;;;;;;;2.97;2.10;;;8.40;99.90;;;;;;4913413;29;20500;-70
2021/04/12 11:57:35;;;;;;;2.07;1.87;;;8.60;99.90;;;;;;4912496;29;20567;-68
2021/04/12 12:00:07;;;;;;;2.60;1.57;;;9.00;99.90;;;;;;4906426;29;20576;-69
2021/04/12 12:02:48;;;;;;;2.60;1.70;;;9.10;99.90;;;;;;4912620;29;20517;-69
2021/04/12 12:05:20;;;;;;;3.00;1.93;;;9.20;99.90;;;;;;4912445;29;20476;-69
2021/04/12 12:07:54;;;;;;;6.40;2.03;;;9.50;99.90;;;;;;4913519;29;20853;-69
2021/04/12 12:10:32;;;;;;;2.57;2.37;;;9.20;99.90;;;;;;4912623;29;20484;-69
2021/04/12 12:13:05;;;;;;;2.20;2.00;;;9.10;99.90;;;;;;4913044;29;20519;-69
2021/04/12 12:15:44;;;;;;;2.30;2.10;;;9.30;99.90;;;;;;4912741;29;20644;-69
2021/04/12 12:18:19;;;;;;;3.03;1.57;;;8.80;99.90;;;;;;4914857;29;20571;-68
2021/04/12 12:20:49;;;;;;;2.13;1.63;;;8.90;99.90;;;;;;4913333;29;20527;-69
2021/04/12 12:23:47;;;;;;;1.53;1.43;;;8.70;99.90;;;;;;4912755;29;20506;-69
2021/04/12 12:26:24;;;;;;;6.10;1.87;;;9.00;99.90;;;;;;4906410;29;20452;-69
2021/04/12 12:28:59;;;;;;;3.27;2.07;;;8.70;99.90;;;;;;4914287;29;20455;-69
2021/04/12 12:31:32;;;;;;;2.50;2.20;;;8.80;99.90;;;;;;4915495;29;20448;-69
2021/04/12 12:34:15;;;;;;;2.60;2.40;;;8.50;99.90;;;;;;4916865;29;20897;-69
2021/04/12 12:36:51;;;;;;;2.43;2.23;;;8.50;99.90;;;;;;4916412;29;20879;-69
2021/04/12 12:39:27;;;;;;;3.13;1.60;;;8.70;99.90;;;;;;4916509;29;20479;-69
2021/04/12 12:41:54;;;;;;;3.00;1.70;;;8.90;99.90;;;;;;4916774;29;20478;-69
2021/04/12 12:44:24;;;;;;;3.00;1.40;;;9.30;99.90;;;;;;4915905;29;20564;-69
2021/04/12 12:46:51;;;;;;;2.67;1.70;;;9.60;99.90;;;;;;4916067;29;20972;-69
2021/04/12 12:49:23;;;;;;;3.73;1.50;;;9.70;99.90;;;;;;4915472;29;20504;-69
2021/04/12 12:51:52;;;;;;;3.80;1.23;;;9.20;99.90;;;;;;4915985;29;20550;-69
2021/04/12 12:54:27;;;;;;;1.53;1.40;;;8.90;99.90;;;;;;4915524;29;20459;-68
2021/04/12 12:57:03;;;;;;;2.33;1.40;;;9.00;99.90;;;;;;4916235;29;20483;-69
2021/04/12 12:59:36;;;;;;;1.40;1.30;;;8.90;99.90;;;;;;4915503;29;20480;-69
2021/04/12 13:02:19;;;;;;;2.53;1.53;;;9.10;99.90;;;;;;4916067;29;20596;-68
2021/04/12 13:04:54;;;;;;;2.17;1.80;;;9.20;99.90;;;;;;4915796;29;20624;-68
2021/04/12 13:07:21;;;;;;;2.00;1.70;;;9.20;99.90;;;;;;4916004;29;20962;-70
2021/04/12 13:09:57;;;;;;;4.47;1.40;;;9.70;99.90;;;;;;4916271;29;20520;-69
2021/04/12 13:12:31;;;;;;;3.13;1.83;;;10.30;99.90;;;;;;4915282;29;20472;-69
2021/04/12 13:15:30;;;;;;;1.40;1.30;;;10.70;99.90;;;;;;4916174;29;20480;-69
2021/04/12 13:18:07;;;;;;;3.73;1.57;;;10.80;99.90;;;;;;4912541;29;20507;-70
2021/04/12 13:20:38;;;;;;;2.93;1.10;;;10.40;99.90;;;;;;4915589;29;20488;-69
2021/04/12 13:23:12;;;;;;;2.70;1.80;;;10.00;99.90;;;;;;4915327;29;21004;-68
2021/04/12 13:25:42;;;;;;;3.23;1.73;;;10.50;99.90;;;;;;4915949;29;20503;-69
2021/04/12 13:28:15;;;;;;;3.60;1.80;;;10.80;99.90;;;;;;4915644;29;20453;-68
2021/04/12 13:30:48;;;;;;;3.10;1.90;;;11.10;99.90;;;;;;4915076;29;20535;-68
2021/04/12 13:33:24;;;;;;;4.10;1.50;;;10.70;99.10;;;;;;4915171;29;20445;-69
2021/04/12 13:35:58;;;;;;;1.43;1.33;;;10.80;95.30;;;;;;4915739;29;20555;-68
2021/04/12 13:38:31;;;;;;;1.93;1.50;;;10.50;94.50;;;;;;4907469;29;20560;-68
2021/04/12 13:41:07;;;;;;;1.70;1.50;;;10.60;99.90;;;;;;4914915;29;20524;-69
2021/04/12 13:43:35;;;;;;;2.40;1.50;;;10.50;96.30;;;;;;4915171;29;20444;-69
2021/04/12 13:46:12;;;;;;;1.73;1.20;;;10.50;95.90;;;;;;4915668;29;20606;-68
2021/04/12 13:48:41;;;;;;;2.00;1.50;;;10.00;95.30;;;;;;4915197;29;20465;-69
2021/04/12 13:51:12;;;;;;;1.20;1.10;;;10.00;95.00;;;;;;4915031;29;20539;-68
2021/04/12 13:53:48;;;;;;;2.43;1.40;;;10.20;96.20;;;;;;4915785;29;20449;-68
2021/04/12 13:56:18;;;;;;;1.30;1.20;;;10.10;95.30;;;;;;4914876;29;20456;-70
2021/04/12 13:58:49;;;;;;;1.30;1.20;;;10.10;96.80;;;;;;4914958;29;20492;-70
2021/04/12 14:01:19;;;;;;;4.50;3.67;;;10.20;96.20;;;;;;4914023;29;20539;-70
2021/04/12 14:04:00;;;;;;;4.47;1.50;;;9.80;98.80;;;;;;4915306;29;20464;-69
2021/04/12 14:06:29;;;;;;;4.23;1.20;;;9.20;96.50;;;;;;4914895;29;20460;-69
2021/04/12 14:09:01;;;;;;;1.43;1.33;;;9.40;99.90;;;;;;4915477;29;20495;-70
2021/04/12 14:11:35;;;;;;;4.30;2.17;;;9.80;99.90;;;;;;4914381;29;20599;-69
2021/04/12 14:14:06;;;;;;;2.40;1.57;;;10.70;99.90;;;;;;4914919;29;20510;-69
2021/04/12 14:16:37;;;;;;;2.10;1.70;;;11.90;99.90;;;;;;4914058;29;20457;-69
2021/04/12 14:19:09;;;;;;;1.47;1.37;;;11.60;99.90;;;;;;4914638;29;20515;-69
2021/04/12 14:21:40;;;;;;;1.40;1.30;;;11.30;99.90;;;;;;4914275;29;20452;-70
2021/04/12 14:24:12;;;;;;;2.50;1.90;;;11.40;99.70;;;;;;4914778;29;20441;-70
2021/04/12 14:26:43;;;;;;;2.73;1.70;;;11.20;99.00;;;;;;4914888;29;20889;-69
2021/04/12 14:29:22;;;;;;;3.13;1.80;;;10.70;99.90;;;;;;4914001;29;20461;-68
2021/04/12 14:31:50;;;;;;;2.30;2.10;;;10.90;99.90;;;;;;4914527;29;20455;-68
2021/04/12 14:34:22;;;;;;;2.37;2.17;;;10.20;99.90;;;;;;4913957;29;20448;-69
2021/04/12 14:36:50;;;;;;;2.40;1.73;;;10.50;99.90;;;;;;4915101;29;20880;-68
2021/04/12 14:39:24;;;;;;;2.67;1.57;;;9.90;99.90;;;;;;4914259;29;20556;-69
2021/04/12 14:41:54;;;;;;;2.67;1.60;;;10.00;99.90;;;;;;4914211;29;20484;-69